| time (UTC) | temp C | wind direction | speed KPH | gust KPH | rain 1hr cm | rain 24hr cm | rain mn cm | humidity % | barometer mb |
| 20260507155306 | 28 | 121 | 22.5 | 24.1 | 0.00 | 0.00 | 0.00 | 71 | 1009.1 |
| 20260507154805 | 28 | 116 | 20.9 | 25.7 | 0.00 | 0.00 | 0.00 | 70 | 1009.1 |
| 20260507154305 | 28 | 113 | 22.5 | 25.7 | 0.00 | 0.00 | 0.00 | 70 | 1009.1 |
| 20260507153304 | 28 | 115 | 19.3 | 22.5 | 0.00 | 0.00 | 0.00 | 70 | 1009.2 |
| 20260507152805 | 28 | 113 | 20.9 | 22.5 | 0.00 | 0.00 | 0.00 | 71 | 1009.3 |
| 20260507152306 | 28 | 114 | 19.3 | 22.5 | 0.00 | 0.00 | 0.00 | 71 | 1009.4 |
| 20260507151805 | 28 | 122 | 19.3 | 20.9 | 0.00 | 0.00 | 0.00 | 71 | 1009.5 |
| 20260507151304 | 29 | 117 | 20.9 | 20.9 | 0.00 | 0.00 | 0.00 | 70 | 1009.6 |
| 20260507150305 | 28 | 115 | 17.7 | 20.9 | 0.00 | 0.00 | 0.00 | 70 | 1009.8 |
| 20260507144804 | 29 | 110 | 16.1 | 19.3 | 0.00 | 0.00 | 0.00 | 71 | 1010.0 |
| 20260507144305 | 29 | 118 | 16.1 | 20.9 | 0.00 | 0.00 | 0.00 | 71 | 1010.0 |
| 20260507143804 | 28 | 116 | 19.3 | 20.9 | 0.00 | 0.00 | 0.00 | 71 | 1010.1 |
| 20260507143304 | 29 | 114 | 19.3 | 22.5 | 0.00 | 0.00 | 0.00 | 70 | 1010.2 |
| 20260507142306 | 30 | 133 | 17.7 | 20.9 | 0.00 | 0.00 | 0.00 | 66 | 1010.3 |
| 20260507141804 | 30 | 128 | 11.3 | 20.9 | 0.00 | 0.00 | 0.00 | 65 | 1010.3 |
| 20260507141305 | 30 | 157 | 11.3 | 20.9 | 0.00 | 0.00 | 0.00 | 65 | 1010.3 |
| 20260507135306 | 30 | 156 | 14.5 | 20.9 | 0.00 | 0.00 | 0.00 | 65 | 1010.7 |
| 20260507134304 | 30 | 146 | 16.1 | 20.9 | 0.00 | 0.00 | 0.00 | 67 | 1010.8 |
| 20260507133305 | 30 | 143 | 16.1 | 22.5 | 0.00 | 0.00 | 0.00 | 67 | 1010.9 |
| 20260507132307 | 29 | 138 | 17.7 | 20.9 | 0.00 | 0.00 | 0.00 | 69 | 1011.0 |
| 20260507131304 | 28 | 136 | 17.7 | 20.9 | 0.00 | 0.00 | 0.00 | 73 | 1011.2 |
| 20260507123804 | 27 | 117 | 9.7 | 12.9 | 0.00 | 0.00 | 0.00 | 78 | 1011.4 |
| 20260507123308 | 27 | 117 | 9.7 | 11.3 | 0.00 | 0.00 | 0.00 | 77 | 1011.4 |
| 20260507122804 | 27 | 117 | 9.7 | 12.9 | 0.00 | 0.00 | 0.00 | 77 | 1011.4 |
| 20260507122307 | 27 | 117 | 9.7 | 12.9 | 0.00 | 0.00 | 0.00 | 77 | 1011.4 |
| 20260507121804 | 27 | 115 | 11.3 | 16.1 | 0.00 | 0.00 | 0.00 | 76 | 1011.4 |
| 20260507121304 | 27 | 121 | 9.7 | 14.5 | 0.00 | 0.00 | 0.00 | 76 | 1011.5 |
| 20260507120804 | 27 | 122 | 9.7 | 12.9 | 0.00 | 0.00 | 0.00 | 76 | 1011.6 |
| 20260507115307 | 27 | 132 | 9.7 | 16.1 | 0.00 | 0.00 | 0.00 | 76 | 1011.5 |
| 20260507114804 | 27 | 155 | 11.3 | 16.1 | 0.00 | 0.00 | 0.00 | 76 | 1011.4 |
| 20260507113312 | 27 | 142 | 3.2 | 11.3 | 0.00 | 0.00 | 0.00 | 78 | 1011.4 |
| 20260507112804 | 27 | 186 | 4.8 | 12.9 | 0.00 | 0.00 | 0.00 | 78 | 1011.4 |
| 20260507112307 | 27 | 232 | 3.2 | 8.0 | 0.00 | 0.00 | 0.00 | 78 | 1011.4 |
| 20260507111304 | 27 | 177 | 3.2 | 8.0 | 0.00 | 0.00 | 0.00 | 79 | 1011.4 |
| 20260507110804 | 27 | 222 | 0.0 | 3.2 | 0.00 | 0.00 | 0.00 | 79 | 1011.4 |
| 20260507110304 | 27 | 189 | 1.6 | 3.2 | 0.00 | 0.00 | 0.00 | 80 | 1011.3 |
| 20260507105804 | 27 | 232 | 1.6 | 4.8 | 0.00 | 0.00 | 0.00 | 80 | 1011.3 |
| 20260507105306 | 27 | 167 | 1.6 | 4.8 | 0.00 | 0.00 | 0.00 | 80 | 1011.2 |
| 20260507103805 | 26 | 213 | 1.6 | 3.2 | 0.00 | 0.03 | 0.00 | 81 | 1011.0 |
| 20260507102307 | 26 | 223 | 3.2 | 4.8 | 0.00 | 0.03 | 0.00 | 82 | 1011.0 |
| 20260507100804 | 26 | 249 | 1.6 | 4.8 | 0.00 | 0.03 | 0.00 | 82 | 1010.9 |
| 20260507100304 | 26 | 263 | 1.6 | 4.8 | 0.00 | 0.03 | 0.00 | 82 | 1010.8 |
| 20260507095804 | 25 | 260 | 1.6 | 3.2 | 0.00 | 0.03 | 0.00 | 82 | 1010.9 |
| 20260507094804 | 25 | 254 | 1.6 | 3.2 | 0.00 | 0.03 | 0.00 | 82 | 1010.7 |
| 20260507094304 | 25 | 248 | 1.6 | 3.2 | 0.00 | 0.03 | 0.00 | 82 | 1010.7 |
| 20260507093804 | 25 | 276 | 0.0 | 0.0 | 0.00 | 0.03 | 0.00 | 82 | 1010.6 |
| 20260507085306 | 25 | 247 | 0.0 | 0.0 | 0.00 | 0.03 | 0.00 | 83 | 1010.3 |
| 20260507084804 | 25 | 273 | 0.0 | 0.0 | 0.00 | 0.03 | 0.00 | 83 | 1010.2 |
| 20260507084304 | 25 | 238 | 0.0 | 0.0 | 0.00 | 0.03 | 0.00 | 83 | 1010.2 |
| 20260507075307 | 25 | 245 | 0.0 | 0.0 | 0.00 | 0.03 | 0.00 | 83 | 1009.6 |
| 20260507074804 | 25 | 271 | 0.0 | 0.0 | 0.00 | 0.03 | 0.00 | 83 | 1009.6 |
| 20260507072804 | 24 | 265 | 0.0 | 0.0 | 0.00 | 0.03 | 0.00 | 83 | 1009.5 |
| 20260507072306 | 24 | 270 | 0.0 | 0.0 | 0.00 | 0.03 | 0.00 | 83 | 1009.5 |
| 20260507071804 | 24 | 283 | 0.0 | 0.0 | 0.00 | 0.03 | 0.00 | 84 | 1009.5 |
| 20260507070804 | 24 | 255 | 0.0 | 0.0 | 0.00 | 0.03 | 0.00 | 84 | 1009.5 |
| 20260507065306 | 24 | 272 | 0.0 | 0.0 | 0.00 | 0.03 | 0.00 | 84 | 1009.6 |
| 20260507064804 | 24 | 274 | 0.0 | 0.0 | 0.00 | 0.03 | 0.00 | 84 | 1009.6 |
| 20260507063304 | 24 | 240 | 0.0 | 0.0 | 0.00 | 0.03 | 0.00 | 84 | 1009.7 |
| 20260507062805 | 24 | 220 | 0.0 | 0.0 | 0.00 | 0.03 | 0.00 | 84 | 1009.6 |
| 20260507061805 | 24 | 238 | 0.0 | 0.0 | 0.00 | 0.03 | 0.00 | 84 | 1009.5 |
| 20260507054804 | 24 | 277 | 0.0 | 0.0 | 0.00 | 0.03 | 0.00 | 84 | 1009.6 |
| 20260507053305 | 24 | 258 | 0.0 | 0.0 | 0.00 | 0.03 | 0.00 | 83 | 1009.7 |
| 20260507052306 | 25 | 268 | 0.0 | 0.0 | 0.00 | 0.08 | 0.00 | 83 | 1009.7 |
| 20260507044804 | 25 | 235 | 0.0 | 0.0 | 0.00 | 0.10 | 0.00 | 83 | 1009.9 |
| 20260507043804 | 25 | 232 | 0.0 | 0.0 | 0.00 | 0.13 | 0.00 | 82 | 1009.8 |
| 20260507041805 | 25 | 228 | 0.0 | 0.0 | 0.00 | 0.23 | 0.00 | 82 | 1009.9 |
| 20260507041304 | 25 | 238 | 0.0 | 0.0 | 0.00 | 0.23 | 0.00 | 82 | 1009.8 |
| 20260507040804 | 25 | 228 | 0.0 | 0.0 | 0.00 | 0.23 | 0.00 | 82 | 1009.9 |
| 20260507040304 | 25 | 240 | 0.0 | 0.0 | 0.00 | 0.23 | 0.00 | 82 | 1010.0 |
| 20260507033304 | 25 | 258 | 0.0 | 0.0 | 0.00 | 0.28 | 0.00 | 82 | 1010.1 |
| 20260507032306 | 25 | 258 | 0.0 | 0.0 | 0.00 | 0.28 | 0.00 | 82 | 1010.2 |
| 20260507031804 | 25 | 258 | 0.0 | 0.0 | 0.00 | 0.28 | 0.00 | 82 | 1010.2 |
| 20260507031304 | 25 | 267 | 0.0 | 0.0 | 0.00 | 0.28 | 0.00 | 82 | 1010.2 |
| 20260507024805 | 25 | 263 | 0.0 | 0.0 | 0.00 | 0.28 | 0.28 | 81 | 1010.5 |
| 20260507024304 | 25 | 263 | 0.0 | 0.0 | 0.00 | 0.28 | 0.28 | 81 | 1010.5 |
| 20260507023304 | 25 | 268 | 0.0 | 0.0 | 0.00 | 0.28 | 0.28 | 81 | 1010.6 |
| 20260507022804 | 25 | 277 | 0.0 | 0.0 | 0.00 | 0.28 | 0.28 | 81 | 1010.6 |
| 20260507022306 | 25 | 286 | 0.0 | 0.0 | 0.00 | 0.28 | 0.28 | 81 | 1010.6 |
| 20260507020804 | 25 | 286 | 0.0 | 0.0 | 0.00 | 0.28 | 0.28 | 81 | 1010.8 |
| 20260507015306 | 25 | 287 | 0.0 | 0.0 | 0.00 | 0.28 | 0.28 | 81 | 1010.8 |
| 20260507014805 | 25 | 286 | 0.0 | 0.0 | 0.00 | 0.28 | 0.28 | 81 | 1010.8 |
| 20260507012805 | 26 | 272 | 0.0 | 0.0 | 0.00 | 0.28 | 0.28 | 80 | 1010.9 |
| 20260507011305 | 26 | 288 | 3.2 | 4.8 | 0.00 | 0.28 | 0.28 | 81 | 1010.9 |
| 20260507010805 | 26 | 271 | 3.2 | 8.0 | 0.00 | 0.28 | 0.28 | 81 | 1010.9 |
| 20260507010305 | 26 | 248 | 1.6 | 8.0 | 0.00 | 0.28 | 0.28 | 81 | 1011.0 |
| 20260507005805 | 26 | 219 | 1.6 | 4.8 | 0.00 | 0.28 | 0.28 | 80 | 1011.0 |
| 20260507005305 | 26 | 274 | 1.6 | 3.2 | 0.00 | 0.28 | 0.28 | 80 | 1011.0 |
| 20260507004804 | 26 | 255 | 0.0 | 3.2 | 0.00 | 0.28 | 0.28 | 80 | 1011.0 |
| 20260507004304 | 26 | 266 | 0.0 | 1.6 | 0.00 | 0.28 | 0.28 | 80 | 1010.9 |
| 20260507003304 | 26 | 280 | 1.6 | 4.8 | 0.00 | 0.28 | 0.28 | 80 | 1010.9 |
| 20260507002804 | 26 | 278 | 1.6 | 3.2 | 0.00 | 0.28 | 0.28 | 80 | 1010.9 |
| 20260507001804 | 26 | 281 | 3.2 | 8.0 | 0.00 | 0.28 | 0.28 | 80 | 1010.8 |
| 20260506235805 | 26 | 277 | 3.2 | 8.0 | 0.00 | 0.28 | 0.28 | 80 | 1010.9 |
| 20260506233804 | 26 | 271 | 3.2 | 8.0 | 0.00 | 0.28 | 0.28 | 80 | 1010.6 |
| 20260506232804 | 26 | 267 | 3.2 | 4.8 | 0.00 | 0.28 | 0.28 | 79 | 1010.6 |
| 20260506232306 | 26 | 275 | 3.2 | 4.8 | 0.00 | 0.28 | 0.28 | 79 | 1010.6 |
| 20260506225306 | 26 | 266 | 3.2 | 8.0 | 0.00 | 0.28 | 0.28 | 77 | 1010.5 |
| 20260506224304 | 27 | 274 | 3.2 | 4.8 | 0.00 | 0.28 | 0.28 | 76 | 1010.5 |
| 20260506223804 | 27 | 240 | 1.6 | 4.8 | 0.00 | 0.28 | 0.28 | 76 | 1010.5 |
| 20260506222804 | 27 | 127 | 0.0 | 3.2 | 0.00 | 0.28 | 0.28 | 75 | 1010.6 |
| 20260506222306 | 27 | 176 | 1.6 | 4.8 | 0.00 | 0.28 | 0.28 | 75 | 1010.6 |
| 20260506221804 | 27 | 196 | 8.0 | 12.9 | 0.00 | 0.28 | 0.28 | 75 | 1010.5 |
| 20260506220304 | 28 | 168 | 12.9 | 22.5 | 0.00 | 0.28 | 0.28 | 75 | 1010.4 |
| 20260506215306 | 28 | 151 | 12.9 | 22.5 | 0.00 | 0.28 | 0.28 | 75 | 1010.3 |
| 20260506214303 | 28 | 145 | 20.9 | 25.7 | 0.00 | 0.28 | 0.28 | 75 | 1010.3 |
| 20260506213804 | 28 | 148 | 22.5 | 27.4 | 0.00 | 0.28 | 0.28 | 75 | 1010.2 |
| 20260506213304 | 28 | 143 | 22.5 | 25.7 | 0.00 | 0.28 | 0.28 | 75 | 1010.2 |
| 20260506210804 | 28 | 135 | 29.0 | 32.2 | 0.00 | 0.28 | 0.28 | 75 | 1010.0 |
| 20260506205804 | 28 | 138 | 27.4 | 32.2 | 0.00 | 0.28 | 0.28 | 75 | 1010.0 |
| 20260506205306 | 28 | 134 | 24.1 | 27.4 | 0.00 | 0.28 | 0.28 | 75 | 1010.0 |
| 20260506204804 | 28 | 132 | 27.4 | 32.2 | 0.00 | 0.28 | 0.28 | 75 | 1010.0 |
| 20260506204304 | 28 | 132 | 27.4 | 32.2 | 0.00 | 0.28 | 0.28 | 76 | 1009.9 |
| 20260506203304 | 28 | 135 | 25.7 | 29.0 | 0.00 | 0.28 | 0.28 | 74 | 1010.0 |
| 20260506202306 | 28 | 135 | 25.7 | 27.4 | 0.00 | 0.28 | 0.28 | 74 | 1010.0 |
| 20260506201304 | 28 | 134 | 27.4 | 29.0 | 0.00 | 0.28 | 0.28 | 74 | 1009.9 |
| 20260506200804 | 28 | 137 | 25.7 | 29.0 | 0.00 | 0.28 | 0.28 | 74 | 1010.0 |
| 20260506200304 | 28 | 133 | 25.7 | 29.0 | 0.00 | 0.28 | 0.28 | 74 | 1010.0 |
| 20260506194804 | 28 | 140 | 29.0 | 33.8 | 0.00 | 0.28 | 0.28 | 73 | 1010.1 |
| 20260506194304 | 28 | 134 | 27.4 | 29.0 | 0.00 | 0.28 | 0.28 | 73 | 1010.1 |
| 20260506193804 | 28 | 135 | 27.4 | 32.2 | 0.00 | 0.28 | 0.28 | 73 | 1010.1 |
| 20260506192804 | 29 | 137 | 25.7 | 33.8 | 0.00 | 0.28 | 0.28 | 73 | 1010.0 |
| 20260506190804 | 28 | 130 | 29.0 | 33.8 | 0.00 | 0.28 | 0.28 | 72 | 1010.0 |
| 20260506190304 | 28 | 133 | 30.6 | 33.8 | 0.00 | 0.28 | 0.28 | 72 | 1010.0 |
| 20260506184304 | 28 | 128 | 32.2 | 35.4 | 0.00 | 0.28 | 0.28 | 71 | 1009.9 |
| 20260506182803 | 28 | 134 | 33.8 | 37.0 | 0.00 | 0.28 | 0.28 | 71 | 1009.7 |
| 20260506182306 | 28 | 131 | 30.6 | 37.0 | 0.00 | 0.28 | 0.28 | 72 | 1009.7 |
| 20260506181804 | 29 | 133 | 29.0 | 35.4 | 0.00 | 0.28 | 0.28 | 73 | 1009.7 |
| 20260506180804 | 28 | 131 | 32.2 | 35.4 | 0.00 | 0.28 | 0.28 | 72 | 1009.7 |
| 20260506180304 | 28 | 133 | 32.2 | 37.0 | 0.00 | 0.28 | 0.28 | 72 | 1009.8 |
| 20260506175804 | 28 | 132 | 33.8 | 38.6 | 0.00 | 0.28 | 0.28 | 71 | 1009.7 |
| 20260506174804 | 29 | 131 | 29.0 | 35.4 | 0.00 | 0.28 | 0.28 | 71 | 1009.6 |
| 20260506174304 | 29 | 130 | 29.0 | 33.8 | 0.00 | 0.28 | 0.28 | 71 | 1009.6 |
| 20260506172804 | 29 | 126 | 27.4 | 32.2 | 0.00 | 0.28 | 0.28 | 71 | 1009.7 |
| 20260506172306 | 29 | 127 | 27.4 | 32.2 | 0.00 | 0.28 | 0.28 | 71 | 1009.7 |
| 20260506170804 | 29 | 124 | 25.7 | 27.4 | 0.00 | 0.28 | 0.28 | 70 | 1009.9 |
| 20260506170304 | 30 | 123 | 20.9 | 24.1 | 0.00 | 0.28 | 0.28 | 69 | 1010.0 |
| 20260506165305 | 30 | 136 | 20.9 | 27.4 | 0.00 | 0.28 | 0.28 | 65 | 1010.2 |
| 20260506163304 | 31 | 179 | 4.8 | 20.9 | 0.00 | 0.28 | 0.28 | 55 | 1010.4 |
| 20260506162307 | 32 | 191 | 6.4 | 20.9 | 0.00 | 0.28 | 0.28 | 55 | 1010.4 |
| 20260506161304 | 31 | 193 | 9.7 | 22.5 | 0.00 | 0.28 | 0.28 | 55 | 1010.6 |
| 20260506160804 | 32 | 168 | 11.3 | 20.9 | 0.00 | 0.28 | 0.28 | 56 | 1010.7 |